sensor_id;sensor_type;location;lat;lon;timestamp;pressure;altitude;pressure_sealevel;temperature;humidity
46392;BME280;32098;49.448;7.904;2023-04-05T00:01:12;98802.66;;;-1.08;66.51
46392;BME280;32098;49.448;7.904;2023-04-05T00:03:40;98793.78;;;-0.97;66.00
46392;BME280;32098;49.448;7.904;2023-04-05T00:06:08;98797.78;;;-0.93;65.54
46392;BME280;32098;49.448;7.904;2023-04-05T00:08:38;98792.69;;;-0.95;65.60
46392;BME280;32098;49.448;7.904;2023-04-05T00:11:06;98786.00;;;-0.89;66.11
46392;BME280;32098;49.448;7.904;2023-04-05T00:13:32;98782.44;;;-0.88;65.59
46392;BME280;32098;49.448;7.904;2023-04-05T00:15:59;98783.50;;;-0.81;65.13
46392;BME280;32098;49.448;7.904;2023-04-05T00:18:26;98774.13;;;-0.84;65.57
46392;BME280;32098;49.448;7.904;2023-04-05T00:20:53;98730.78;;;-1.06;65.50
46392;BME280;32098;49.448;7.904;2023-04-05T00:23:20;98776.75;;;-0.84;65.72
46392;BME280;32098;49.448;7.904;2023-04-05T00:25:48;98774.06;;;-1.01;65.32
46392;BME280;32098;49.448;7.904;2023-04-05T00:28:16;98771.63;;;-1.13;65.93
46392;BME280;32098;49.448;7.904;2023-04-05T00:30:43;98763.38;;;-1.18;65.77
46392;BME280;32098;49.448;7.904;2023-04-05T00:33:13;98764.34;;;-1.28;66.50
46392;BME280;32098;49.448;7.904;2023-04-05T00:35:40;98771.16;;;-1.45;66.88
46392;BME280;32098;49.448;7.904;2023-04-05T00:38:07;98761.63;;;-1.46;66.55
46392;BME280;32098;49.448;7.904;2023-04-05T00:40:34;98773.63;;;-1.53;67.00
46392;BME280;32098;49.448;7.904;2023-04-05T00:43:01;98772.81;;;-1.53;66.79
46392;BME280;32098;49.448;7.904;2023-04-05T00:45:28;98771.03;;;-1.53;67.11
46392;BME280;32098;49.448;7.904;2023-04-05T00:47:55;98771.28;;;-1.56;67.38
46392;BME280;32098;49.448;7.904;2023-04-05T00:50:22;98771.44;;;-1.57;67.31
46392;BME280;32098;49.448;7.904;2023-04-05T00:52:49;98765.19;;;-1.47;66.50
46392;BME280;32098;49.448;7.904;2023-04-05T00:55:17;98762.59;;;-1.47;66.22
46392;BME280;32098;49.448;7.904;2023-04-05T00:57:44;98764.81;;;-1.71;67.24
46392;BME280;32098;49.448;7.904;2023-04-05T01:00:11;98768.81;;;-1.77;67.64
46392;BME280;32098;49.448;7.904;2023-04-05T01:02:44;98765.94;;;-1.83;68.17
46392;BME280;32098;49.448;7.904;2023-04-05T01:05:39;98756.41;;;-1.84;68.63
46392;BME280;32098;49.448;7.904;2023-04-05T01:10:50;98748.56;;;-1.94;69.45
46392;BME280;32098;49.448;7.904;2023-04-05T01:13:20;98757.00;;;-1.90;69.02
46392;BME280;32098;49.448;7.904;2023-04-05T01:15:48;98752.56;;;-1.99;69.99
46392;BME280;32098;49.448;7.904;2023-04-05T01:18:14;98748.84;;;-2.06;70.00
46392;BME280;32098;49.448;7.904;2023-04-05T01:20:47;98747.91;;;-2.05;70.66
46392;BME280;32098;49.448;7.904;2023-04-05T01:23:37;98746.66;;;-2.01;70.86
46392;BME280;32098;49.448;7.904;2023-04-05T01:29:32;98743.91;;;-1.90;69.57
46392;BME280;32098;49.448;7.904;2023-04-05T01:32:38;98748.72;;;-1.95;71.03
46392;BME280;32098;49.448;7.904;2023-04-05T01:38:03;98737.13;;;-1.83;70.21
46392;BME280;32098;49.448;7.904;2023-04-05T01:40:31;98734.09;;;-1.79;69.82
46392;BME280;32098;49.448;7.904;2023-04-05T01:43:01;98733.53;;;-1.82;68.96
46392;BME280;32098;49.448;7.904;2023-04-05T01:45:28;98726.13;;;-1.87;69.25
46392;BME280;32098;49.448;7.904;2023-04-05T01:47:54;98731.06;;;-1.74;68.51
46392;BME280;32098;49.448;7.904;2023-04-05T01:50:21;98738.25;;;-1.86;68.78
46392;BME280;32098;49.448;7.904;2023-04-05T01:52:49;98739.34;;;-1.98;69.31
46392;BME280;32098;49.448;7.904;2023-04-05T01:55:16;98720.06;;;-2.06;69.02
46392;BME280;32098;49.448;7.904;2023-04-05T01:57:42;98723.09;;;-1.92;68.94
46392;BME280;32098;49.448;7.904;2023-04-05T02:00:10;98681.78;;;-2.26;68.64
46392;BME280;32098;49.448;7.904;2023-04-05T02:02:40;98737.81;;;-2.10;68.80
46392;BME280;32098;49.448;7.904;2023-04-05T02:05:08;98731.22;;;-2.23;70.10
46392;BME280;32098;49.448;7.904;2023-04-05T02:07:34;98726.94;;;-2.24;69.95
46392;BME280;32098;49.448;7.904;2023-04-05T02:10:01;98734.78;;;-2.24;69.75
46392;BME280;32098;49.448;7.904;2023-04-05T02:12:29;98731.47;;;-2.36;71.31
46392;BME280;32098;49.448;7.904;2023-04-05T02:14:56;98663.84;;;-2.79;72.19
46392;BME280;32098;49.448;7.904;2023-04-05T02:17:24;98729.44;;;-2.32;72.28
46392;BME280;32098;49.448;7.904;2023-04-05T02:19:51;98732.72;;;-2.30;71.72
46392;BME280;32098;49.448;7.904;2023-04-05T02:22:18;98718.66;;;-2.29;71.61
46392;BME280;32098;49.448;7.904;2023-04-05T02:24:45;98727.50;;;-2.21;70.87
46392;BME280;32098;49.448;7.904;2023-04-05T02:27:12;98729.84;;;-2.27;70.29
46392;BME280;32098;49.448;7.904;2023-04-05T02:29:39;98722.53;;;-2.33;71.60
46392;BME280;32098;49.448;7.904;2023-04-05T02:32:06;98719.50;;;-2.29;71.39
46392;BME280;32098;49.448;7.904;2023-04-05T02:34:33;98710.97;;;-2.21;70.93
46392;BME280;32098;49.448;7.904;2023-04-05T02:37:00;98707.41;;;-2.20;70.24
46392;BME280;32098;49.448;7.904;2023-04-05T02:39:27;98714.56;;;-2.22;70.12
46392;BME280;32098;49.448;7.904;2023-04-05T02:41:54;98715.63;;;-2.35;69.81
46392;BME280;32098;49.448;7.904;2023-04-05T02:44:22;98711.53;;;-2.27;68.97
46392;BME280;32098;49.448;7.904;2023-04-05T02:46:51;98715.38;;;-2.22;69.50
46392;BME280;32098;49.448;7.904;2023-04-05T02:49:24;98715.38;;;-2.31;69.60
46392;BME280;32098;49.448;7.904;2023-04-05T02:51:54;98710.41;;;-2.35;69.42
46392;BME280;32098;49.448;7.904;2023-04-05T02:54:24;98723.06;;;-2.40;68.82
46392;BME280;32098;49.448;7.904;2023-04-05T02:56:56;98709.03;;;-2.39;68.62
46392;BME280;32098;49.448;7.904;2023-04-05T02:59:27;98700.25;;;-2.28;67.96
46392;BME280;32098;49.448;7.904;2023-04-05T03:01:54;98706.72;;;-2.22;68.56
46392;BME280;32098;49.448;7.904;2023-04-05T03:04:25;98698.03;;;-2.32;69.57
46392;BME280;32098;49.448;7.904;2023-04-05T03:06:59;98645.13;;;-2.84;69.71
46392;BME280;32098;49.448;7.904;2023-04-05T03:09:32;98699.25;;;-2.56;70.23
46392;BME280;32098;49.448;7.904;2023-04-05T03:12:04;98703.22;;;-2.52;69.93
46392;BME280;32098;49.448;7.904;2023-04-05T03:14:35;98692.09;;;-2.54;69.93
46392;BME280;32098;49.448;7.904;2023-04-05T03:17:02;98650.88;;;-2.90;70.65
46392;BME280;32098;49.448;7.904;2023-04-05T03:19:37;98693.84;;;-2.73;70.06
46392;BME280;32098;49.448;7.904;2023-04-05T03:22:14;98695.22;;;-2.60;69.92
46392;BME280;32098;49.448;7.904;2023-04-05T03:24:41;98706.50;;;-2.69;70.54
46392;BME280;32098;49.448;7.904;2023-04-05T03:27:12;98700.03;;;-2.65;70.25
46392;BME280;32098;49.448;7.904;2023-04-05T03:29:59;98700.16;;;-2.85;71.45
46392;BME280;32098;49.448;7.904;2023-04-05T03:32:28;98707.66;;;-2.92;71.63
46392;BME280;32098;49.448;7.904;2023-04-05T03:35:02;98705.31;;;-2.95;72.53
46392;BME280;32098;49.448;7.904;2023-04-05T03:37:31;98654.78;;;-3.15;72.38
46392;BME280;32098;49.448;7.904;2023-04-05T03:40:01;98706.75;;;-2.72;71.13
46392;BME280;32098;49.448;7.904;2023-04-05T03:42:28;98671.78;;;-2.90;71.29
46392;BME280;32098;49.448;7.904;2023-04-05T03:44:55;98694.94;;;-2.76;71.01
46392;BME280;32098;49.448;7.904;2023-04-05T03:47:21;98693.28;;;-2.77;70.82
46392;BME280;32098;49.448;7.904;2023-04-05T03:49:50;98696.97;;;-2.79;70.53
46392;BME280;32098;49.448;7.904;2023-04-05T03:52:17;98696.03;;;-2.78;70.26
46392;BME280;32098;49.448;7.904;2023-04-05T03:54:44;98688.88;;;-2.76;70.38
46392;BME280;32098;49.448;7.904;2023-04-05T03:57:15;98701.53;;;-2.72;69.55
46392;BME280;32098;49.448;7.904;2023-04-05T03:59:43;98698.34;;;-2.85;69.59
46392;BME280;32098;49.448;7.904;2023-04-05T04:02:11;98700.84;;;-2.83;69.60
46392;BME280;32098;49.448;7.904;2023-04-05T04:04:38;98699.06;;;-2.83;69.20
46392;BME280;32098;49.448;7.904;2023-04-05T04:07:04;98689.97;;;-2.79;69.16
46392;BME280;32098;49.448;7.904;2023-04-05T04:09:31;98677.34;;;-2.74;69.25
46392;BME280;32098;49.448;7.904;2023-04-05T04:12:04;98688.22;;;-2.69;70.23
46392;BME280;32098;49.448;7.904;2023-04-05T04:14:35;98685.31;;;-2.75;70.28
46392;BME280;32098;49.448;7.904;2023-04-05T04:17:35;98684.72;;;-2.88;69.88
46392;BME280;32098;49.448;7.904;2023-04-05T04:20:14;98693.09;;;-2.94;69.92
46392;BME280;32098;49.448;7.904;2023-04-05T04:22:46;98682.19;;;-3.09;71.23
46392;BME280;32098;49.448;7.904;2023-04-05T04:25:27;98679.78;;;-3.22;71.82
46392;BME280;32098;49.448;7.904;2023-04-05T04:28:22;98678.03;;;-3.21;70.96
46392;BME280;32098;49.448;7.904;2023-04-05T04:31:12;98684.91;;;-3.20;70.87
46392;BME280;32098;49.448;7.904;2023-04-05T04:34:12;98680.25;;;-3.07;70.32
46392;BME280;32098;49.448;7.904;2023-04-05T04:36:50;98684.47;;;-3.25;70.82
46392;BME280;32098;49.448;7.904;2023-04-05T04:39:45;98695.50;;;-3.42;72.55
46392;BME280;32098;49.448;7.904;2023-04-05T04:42:31;98693.00;;;-3.53;73.06
46392;BME280;32098;49.448;7.904;2023-04-05T04:45:05;98689.97;;;-3.49;73.83
46392;BME280;32098;49.448;7.904;2023-04-05T04:47:48;98686.72;;;-3.41;73.56
46392;BME280;32098;49.448;7.904;2023-04-05T04:50:34;98686.31;;;-3.37;73.65
46392;BME280;32098;49.448;7.904;2023-04-05T04:53:01;98689.38;;;-3.32;72.52
46392;BME280;32098;49.448;7.904;2023-04-05T04:55:28;98691.75;;;-3.19;71.58
46392;BME280;32098;49.448;7.904;2023-04-05T04:57:55;98689.59;;;-3.14;70.76
46392;BME280;32098;49.448;7.904;2023-04-05T05:00:22;98699.19;;;-3.15;70.48
46392;BME280;32098;49.448;7.904;2023-04-05T05:02:51;98696.03;;;-3.18;70.45
46392;BME280;32098;49.448;7.904;2023-04-05T05:05:18;98696.72;;;-3.16;69.78
46392;BME280;32098;49.448;7.904;2023-04-05T05:07:49;98700.63;;;-3.11;71.06
46392;BME280;32098;49.448;7.904;2023-04-05T05:10:16;98694.03;;;-3.05;71.02
46392;BME280;32098;49.448;7.904;2023-04-05T05:12:44;98705.19;;;-3.03;70.89
46392;BME280;32098;49.448;7.904;2023-04-05T05:15:13;98702.47;;;-3.22;70.27
46392;BME280;32098;49.448;7.904;2023-04-05T05:17:40;98667.16;;;-3.56;70.09
46392;BME280;32098;49.448;7.904;2023-04-05T05:20:08;98705.19;;;-3.33;71.06
46392;BME280;32098;49.448;7.904;2023-04-05T05:22:38;98708.31;;;-3.39;70.80
46392;BME280;32098;49.448;7.904;2023-04-05T05:25:06;98713.72;;;-3.31;71.69
46392;BME280;32098;49.448;7.904;2023-04-05T05:27:34;98710.22;;;-3.11;71.59
46392;BME280;32098;49.448;7.904;2023-04-05T05:30:01;98713.16;;;-2.95;71.13
46392;BME280;32098;49.448;7.904;2023-04-05T05:32:28;98701.13;;;-2.67;70.34
46392;BME280;32098;49.448;7.904;2023-04-05T05:34:56;98708.19;;;-2.49;68.97
46392;BME280;32098;49.448;7.904;2023-04-05T05:37:30;98703.28;;;-2.13;68.26
46392;BME280;32098;49.448;7.904;2023-04-05T05:39:58;98704.06;;;-1.84;67.05
46392;BME280;32098;49.448;7.904;2023-04-05T05:42:24;98640.03;;;-1.99;65.44
46392;BME280;32098;49.448;7.904;2023-04-05T05:44:52;98710.56;;;-1.23;63.99
46392;BME280;32098;49.448;7.904;2023-04-05T05:47:19;98709.47;;;-0.66;64.02
46392;BME280;32098;49.448;7.904;2023-04-05T05:49:46;98697.97;;;-0.02;62.37
46392;BME280;32098;49.448;7.904;2023-04-05T05:52:14;98642.91;;;0.32;61.28
46392;BME280;32098;49.448;7.904;2023-04-05T05:54:41;98684.56;;;1.12;59.75
46392;BME280;32098;49.448;7.904;2023-04-05T05:57:08;98689.16;;;1.60;58.43
46392;BME280;32098;49.448;7.904;2023-04-05T05:59:34;98695.34;;;2.08;57.29
46392;BME280;32098;49.448;7.904;2023-04-05T06:02:01;98687.88;;;2.36;56.20
46392;BME280;32098;49.448;7.904;2023-04-05T06:04:27;98701.38;;;2.73;55.74
46392;BME280;32098;49.448;7.904;2023-04-05T06:06:56;98695.34;;;3.12;55.01
46392;BME280;32098;49.448;7.904;2023-04-05T06:09:23;98698.28;;;3.56;54.06
46392;BME280;32098;49.448;7.904;2023-04-05T06:11:51;98666.50;;;3.72;53.71
46392;BME280;32098;49.448;7.904;2023-04-05T06:14:21;98697.97;;;4.27;52.87
46392;BME280;32098;49.448;7.904;2023-04-05T06:16:48;98709.56;;;4.63;52.36
46392;BME280;32098;49.448;7.904;2023-04-05T06:19:15;98704.63;;;4.89;51.25
46392;BME280;32098;49.448;7.904;2023-04-05T06:21:42;98693.06;;;5.19;50.47
46392;BME280;32098;49.448;7.904;2023-04-05T06:24:09;98693.53;;;5.37;49.50
46392;BME280;32098;49.448;7.904;2023-04-05T06:26:35;98691.78;;;5.59;49.23
46392;BME280;32098;49.448;7.904;2023-04-05T06:29:02;98685.44;;;5.60;48.69
46392;BME280;32098;49.448;7.904;2023-04-05T06:31:33;98698.91;;;5.80;48.17
46392;BME280;32098;49.448;7.904;2023-04-05T06:34:01;98695.97;;;5.89;48.90
46392;BME280;32098;49.448;7.904;2023-04-05T06:36:30;98688.25;;;5.73;48.66
46392;BME280;32098;49.448;7.904;2023-04-05T06:38:58;98692.00;;;5.79;47.89
46392;BME280;32098;49.448;7.904;2023-04-05T06:41:26;98686.00;;;5.91;48.21
46392;BME280;32098;49.448;7.904;2023-04-05T06:43:55;98649.59;;;5.79;48.08
46392;BME280;32098;49.448;7.904;2023-04-05T06:46:22;98688.97;;;6.52;68.72
46392;BME280;32098;49.448;7.904;2023-04-05T06:48:50;98676.38;;;6.82;60.09
46392;BME280;32098;49.448;7.904;2023-04-05T06:51:17;98688.47;;;6.91;58.38
46392;BME280;32098;49.448;7.904;2023-04-05T06:53:44;98684.91;;;7.11;54.05
46392;BME280;32098;49.448;7.904;2023-04-05T06:56:11;98687.94;;;7.36;52.34
46392;BME280;32098;49.448;7.904;2023-04-05T06:58:37;98685.75;;;7.53;50.08
46392;BME280;32098;49.448;7.904;2023-04-05T07:01:04;98682.97;;;7.80;49.78
46392;BME280;32098;49.448;7.904;2023-04-05T07:03:31;98650.81;;;7.62;45.50
46392;BME280;32098;49.448;7.904;2023-04-05T07:05:58;98683.38;;;7.23;45.41
46392;BME280;32098;49.448;7.904;2023-04-05T07:08:27;98684.59;;;7.21;45.35
46392;BME280;32098;49.448;7.904;2023-04-05T07:10:54;98671.94;;;7.23;45.13
46392;BME280;32098;49.448;7.904;2023-04-05T07:13:22;98644.84;;;7.06;45.09
46392;BME280;32098;49.448;7.904;2023-04-05T07:15:49;98683.63;;;7.35;44.88
46392;BME280;32098;49.448;7.904;2023-04-05T07:18:17;98683.25;;;7.38;44.59
46392;BME280;32098;49.448;7.904;2023-04-05T07:20:47;98675.38;;;7.64;44.53
46392;BME280;32098;49.448;7.904;2023-04-05T07:23:14;98686.63;;;7.73;44.14
46392;BME280;32098;49.448;7.904;2023-04-05T07:25:42;98673.81;;;7.96;44.51
46392;BME280;32098;49.448;7.904;2023-04-05T07:28:10;98677.94;;;8.12;43.60
46392;BME280;32098;49.448;7.904;2023-04-05T07:30:37;98665.06;;;8.28;43.89
46392;BME280;32098;49.448;7.904;2023-04-05T07:33:04;98675.28;;;8.38;42.34
46392;BME280;32098;49.448;7.904;2023-04-05T07:35:32;98675.09;;;8.52;41.64
46392;BME280;32098;49.448;7.904;2023-04-05T07:37:59;98666.88;;;8.93;42.51
46392;BME280;32098;49.448;7.904;2023-04-05T07:40:25;98661.72;;;9.05;41.31
46392;BME280;32098;49.448;7.904;2023-04-05T07:42:53;98667.88;;;9.05;40.70
46392;BME280;32098;49.448;7.904;2023-04-05T07:45:20;98669.31;;;9.14;40.93
46392;BME280;32098;49.448;7.904;2023-04-05T07:47:47;98670.53;;;9.05;40.60
46392;BME280;32098;49.448;7.904;2023-04-05T07:50:13;98663.53;;;9.17;40.11
46392;BME280;32098;49.448;7.904;2023-04-05T07:52:41;98670.47;;;9.25;39.95
46392;BME280;32098;49.448;7.904;2023-04-05T07:55:08;98666.31;;;9.49;39.92
46392;BME280;32098;49.448;7.904;2023-04-05T07:57:35;98669.13;;;9.60;39.54
46392;BME280;32098;49.448;7.904;2023-04-05T08:00:03;98669.69;;;9.69;39.06
46392;BME280;32098;49.448;7.904;2023-04-05T08:02:38;98671.91;;;9.78;38.66
46392;BME280;32098;49.448;7.904;2023-04-05T08:05:05;98676.13;;;9.93;38.74
46392;BME280;32098;49.448;7.904;2023-04-05T08:07:32;98671.84;;;10.23;37.76
46392;BME280;32098;49.448;7.904;2023-04-05T08:09:59;98676.56;;;10.27;38.44
46392;BME280;32098;49.448;7.904;2023-04-05T08:12:26;98666.25;;;10.31;44.16
46392;BME280;32098;49.448;7.904;2023-04-05T08:14:53;98669.81;;;9.87;35.21
46392;BME280;32098;49.448;7.904;2023-04-05T08:17:19;98667.78;;;9.82;35.74
46392;BME280;32098;49.448;7.904;2023-04-05T08:19:46;98667.69;;;10.02;35.53
46392;BME280;32098;49.448;7.904;2023-04-05T08:22:14;98655.53;;;10.37;35.94
46392;BME280;32098;49.448;7.904;2023-04-05T08:24:43;98649.09;;;10.70;35.61
46392;BME280;32098;49.448;7.904;2023-04-05T08:27:10;98656.13;;;11.07;34.77
46392;BME280;32098;49.448;7.904;2023-04-05T08:29:36;98649.28;;;11.11;33.91
46392;BME280;32098;49.448;7.904;2023-04-05T08:32:03;98645.56;;;10.94;33.48
46392;BME280;32098;49.448;7.904;2023-04-05T08:34:30;98645.84;;;10.68;33.50
46392;BME280;32098;49.448;7.904;2023-04-05T08:36:57;98604.75;;;9.57;32.45
46392;BME280;32098;49.448;7.904;2023-04-05T08:39:25;98645.63;;;8.15;35.98
46392;BME280;32098;49.448;7.904;2023-04-05T08:42:25;98642.22;;;7.60;37.20
46392;BME280;32098;49.448;7.904;2023-04-05T08:44:56;98646.09;;;6.42;38.15
46392;BME280;32098;49.448;7.904;2023-04-05T08:47:24;98648.56;;;6.22;39.40
46392;BME280;32098;49.448;7.904;2023-04-05T08:49:50;98643.91;;;6.03;39.41
46392;BME280;32098;49.448;7.904;2023-04-05T08:52:17;98653.09;;;6.07;38.26
46392;BME280;32098;49.448;7.904;2023-04-05T08:54:44;98652.44;;;6.47;37.25
46392;BME280;32098;49.448;7.904;2023-04-05T08:57:17;98652.03;;;6.50;35.79
46392;BME280;32098;49.448;7.904;2023-04-05T08:59:44;98655.41;;;6.38;38.41
46392;BME280;32098;49.448;7.904;2023-04-05T09:02:17;98652.09;;;6.08;38.31
46392;BME280;32098;49.448;7.904;2023-04-05T09:04:46;98651.69;;;6.32;39.46
46392;BME280;32098;49.448;7.904;2023-04-05T09:07:14;98606.31;;;6.83;37.30
46392;BME280;32098;49.448;7.904;2023-04-05T09:09:47;98653.13;;;7.72;35.30
46392;BME280;32098;49.448;7.904;2023-04-05T09:12:14;98624.34;;;6.94;35.55
46392;BME280;32098;49.448;7.904;2023-04-05T09:14:42;98643.91;;;7.74;35.15
46392;BME280;32098;49.448;7.904;2023-04-05T09:17:09;98653.59;;;8.28;34.46
46392;BME280;32098;49.448;7.904;2023-04-05T09:19:36;98647.25;;;8.29;34.24
46392;BME280;32098;49.448;7.904;2023-04-05T09:22:05;98653.38;;;8.10;33.79
46392;BME280;32098;49.448;7.904;2023-04-05T09:24:42;98649.28;;;7.34;34.59
46392;BME280;32098;49.448;7.904;2023-04-05T09:27:12;98652.47;;;6.82;34.84
46392;BME280;32098;49.448;7.904;2023-04-05T09:29:49;98650.97;;;7.41;35.55
46392;BME280;32098;49.448;7.904;2023-04-05T09:32:17;98644.13;;;7.79;34.26
46392;BME280;32098;49.448;7.904;2023-04-05T09:34:46;98644.28;;;6.77;36.48
46392;BME280;32098;49.448;7.904;2023-04-05T09:37:26;98640.22;;;7.75;34.90
46392;BME280;32098;49.448;7.904;2023-04-05T09:40:01;98602.41;;;7.86;31.67
46392;BME280;32098;49.448;7.904;2023-04-05T09:42:31;98644.97;;;8.32;31.46
46392;BME280;32098;49.448;7.904;2023-04-05T09:45:00;98649.91;;;7.29;31.37
46392;BME280;32098;49.448;7.904;2023-04-05T09:47:32;98644.31;;;7.17;33.40
46392;BME280;32098;49.448;7.904;2023-04-05T09:52:42;98647.56;;;6.23;34.93
46392;BME280;32098;49.448;7.904;2023-04-05T09:55:09;98636.44;;;6.13;35.34
46392;BME280;32098;49.448;7.904;2023-04-05T09:57:37;98637.69;;;6.73;34.81
46392;BME280;32098;49.448;7.904;2023-04-05T10:00:05;98635.03;;;6.73;33.66
46392;BME280;32098;49.448;7.904;2023-04-05T10:02:39;98628.41;;;6.55;32.84
46392;BME280;32098;49.448;7.904;2023-04-05T10:05:10;98625.31;;;7.20;33.27
46392;BME280;32098;49.448;7.904;2023-04-05T10:07:39;98625.09;;;7.69;34.66
46392;BME280;32098;49.448;7.904;2023-04-05T10:10:10;98628.72;;;7.55;34.82
46392;BME280;32098;49.448;7.904;2023-04-05T10:12:39;98617.72;;;7.71;32.69
46392;BME280;32098;49.448;7.904;2023-04-05T10:15:07;98612.44;;;7.98;32.95
46392;BME280;32098;49.448;7.904;2023-04-05T10:18:02;98609.97;;;8.55;30.82
46392;BME280;32098;49.448;7.904;2023-04-05T10:20:38;98606.31;;;8.30;31.69
46392;BME280;32098;49.448;7.904;2023-04-05T10:23:08;98601.34;;;8.86;34.04
46392;BME280;32098;49.448;7.904;2023-04-05T10:28:46;98602.84;;;9.26;30.45
46392;BME280;32098;49.448;7.904;2023-04-05T10:31:35;98605.97;;;9.16;31.05
46392;BME280;32098;49.448;7.904;2023-04-05T10:34:13;98601.00;;;8.17;33.10
46392;BME280;32098;49.448;7.904;2023-04-05T10:36:56;98601.81;;;8.17;33.23
46392;BME280;32098;49.448;7.904;2023-04-05T10:39:36;98602.16;;;8.86;31.90
46392;BME280;32098;49.448;7.904;2023-04-05T10:44:39;98595.63;;;9.71;32.09
46392;BME280;32098;49.448;7.904;2023-04-05T10:47:12;98590.00;;;9.54;29.64
46392;BME280;32098;49.448;7.904;2023-04-05T10:49:42;98596.50;;;8.17;30.86
46392;BME280;32098;49.448;7.904;2023-04-05T10:52:11;98604.41;;;7.58;31.91
46392;BME280;32098;49.448;7.904;2023-04-05T10:54:39;98597.53;;;8.29;31.79
46392;BME280;32098;49.448;7.904;2023-04-05T10:57:08;98597.13;;;8.00;33.10
46392;BME280;32098;49.448;7.904;2023-04-05T10:59:41;98598.00;;;7.40;33.52
46392;BME280;32098;49.448;7.904;2023-04-05T11:02:08;98582.78;;;7.94;32.04
46392;BME280;32098;49.448;7.904;2023-04-05T11:04:35;98590.97;;;7.86;31.28
46392;BME280;32098;49.448;7.904;2023-04-05T11:07:14;98578.47;;;7.86;32.40
46392;BME280;32098;49.448;7.904;2023-04-05T11:09:51;98574.78;;;8.46;32.21
46392;BME280;32098;49.448;7.904;2023-04-05T11:12:18;98575.94;;;8.83;32.70
46392;BME280;32098;49.448;7.904;2023-04-05T11:14:45;98577.78;;;9.34;30.76
46392;BME280;32098;49.448;7.904;2023-04-05T11:17:27;98527.78;;;9.60;30.72
46392;BME280;32098;49.448;7.904;2023-04-05T11:20:02;98567.06;;;9.47;31.01
46392;BME280;32098;49.448;7.904;2023-04-05T11:22:31;98560.56;;;8.85;32.09
46392;BME280;32098;49.448;7.904;2023-04-05T11:25:01;98570.44;;;9.22;31.66
46392;BME280;32098;49.448;7.904;2023-04-05T11:27:34;98571.50;;;8.51;33.73
46392;BME280;32098;49.448;7.904;2023-04-05T11:30:04;98575.91;;;7.26;35.34
46392;BME280;32098;49.448;7.904;2023-04-05T11:32:42;98576.38;;;6.95;36.45
46392;BME280;32098;49.448;7.904;2023-04-05T11:35:12;98563.25;;;7.35;36.17
46392;BME280;32098;49.448;7.904;2023-04-05T11:40:27;98552.91;;;8.18;36.48
46392;BME280;32098;49.448;7.904;2023-04-05T11:43:08;98557.59;;;7.64;34.48
46392;BME280;32098;49.448;7.904;2023-04-05T11:45:37;98549.03;;;8.14;34.85
46392;BME280;32098;49.448;7.904;2023-04-05T11:48:12;98538.72;;;8.50;34.67
46392;BME280;32098;49.448;7.904;2023-04-05T11:50:40;98550.25;;;7.99;33.21
46392;BME280;32098;49.448;7.904;2023-04-05T11:53:15;98550.22;;;7.53;32.61
46392;BME280;32098;49.448;7.904;2023-04-05T11:55:47;98545.63;;;7.20;33.02
46392;BME280;32098;49.448;7.904;2023-04-05T11:58:19;98537.09;;;7.45;34.22
46392;BME280;32098;49.448;7.904;2023-04-05T12:00:59;98540.63;;;6.91;32.85
46392;BME280;32098;49.448;7.904;2023-04-05T12:03:27;98548.13;;;6.81;35.68
46392;BME280;32098;49.448;7.904;2023-04-05T12:06:00;98536.72;;;7.54;34.93
46392;BME280;32098;49.448;7.904;2023-04-05T12:11:09;98531.84;;;8.17;33.74
46392;BME280;32098;49.448;7.904;2023-04-05T12:13:37;98536.34;;;7.97;31.77
46392;BME280;32098;49.448;7.904;2023-04-05T12:16:06;98537.75;;;8.19;32.55
46392;BME280;32098;49.448;7.904;2023-04-05T12:18:35;98535.91;;;7.60;33.60
46392;BME280;32098;49.448;7.904;2023-04-05T12:21:05;98528.97;;;7.72;34.39
46392;BME280;32098;49.448;7.904;2023-04-05T12:23:33;98520.78;;;7.54;33.72
46392;BME280;32098;49.448;7.904;2023-04-05T12:26:02;98524.41;;;6.80;32.71
46392;BME280;32098;49.448;7.904;2023-04-05T12:28:50;98527.88;;;7.27;34.43
46392;BME280;32098;49.448;7.904;2023-04-05T12:31:41;98515.47;;;7.74;35.30
46392;BME280;32098;49.448;7.904;2023-04-05T12:34:09;98511.38;;;8.17;34.54
46392;BME280;32098;49.448;7.904;2023-04-05T12:36:36;98488.19;;;7.06;34.46
46392;BME280;32098;49.448;7.904;2023-04-05T12:39:08;98517.66;;;7.18;34.61
46392;BME280;32098;49.448;7.904;2023-04-05T12:41:36;98515.47;;;7.54;34.50
46392;BME280;32098;49.448;7.904;2023-04-05T12:44:13;98507.69;;;7.66;35.92
46392;BME280;32098;49.448;7.904;2023-04-05T12:46:45;98504.00;;;7.41;35.57
46392;BME280;32098;49.448;7.904;2023-04-05T12:49:14;98482.22;;;6.98;33.79
46392;BME280;32098;49.448;7.904;2023-04-05T12:51:45;98499.94;;;7.51;32.36
46392;BME280;32098;49.448;7.904;2023-04-05T12:54:13;98506.44;;;7.36;37.91
46392;BME280;32098;49.448;7.904;2023-04-05T12:56:41;98509.88;;;7.16;36.05
46392;BME280;32098;49.448;7.904;2023-04-05T12:59:07;98499.53;;;7.61;36.02
46392;BME280;32098;49.448;7.904;2023-04-05T13:01:34;98497.06;;;7.99;35.20
46392;BME280;32098;49.448;7.904;2023-04-05T13:04:03;98495.84;;;8.01;35.25
46392;BME280;32098;49.448;7.904;2023-04-05T13:06:42;98468.16;;;7.10;34.78
46392;BME280;32098;49.448;7.904;2023-04-05T13:09:08;98495.84;;;7.49;34.50
46392;BME280;32098;49.448;7.904;2023-04-05T13:11:35;98496.84;;;7.41;34.86
46392;BME280;32098;49.448;7.904;2023-04-05T13:14:01;98494.16;;;7.21;35.98
46392;BME280;32098;49.448;7.904;2023-04-05T13:16:28;98488.47;;;7.44;35.03
46392;BME280;32098;49.448;7.904;2023-04-05T13:18:55;98480.72;;;7.75;34.41
46392;BME280;32098;49.448;7.904;2023-04-05T13:21:21;98445.34;;;7.55;33.97
46392;BME280;32098;49.448;7.904;2023-04-05T13:23:48;98487.47;;;7.71;33.81
46392;BME280;32098;49.448;7.904;2023-04-05T13:26:14;98480.50;;;7.70;34.78
46392;BME280;32098;49.448;7.904;2023-04-05T13:28:41;98470.28;;;7.93;33.80
46392;BME280;32098;49.448;7.904;2023-04-05T13:31:08;98470.47;;;7.72;34.51
46392;BME280;32098;49.448;7.904;2023-04-05T13:33:34;98462.50;;;7.85;31.57
46392;BME280;32098;49.448;7.904;2023-04-05T13:36:01;98471.28;;;8.12;32.81
46392;BME280;32098;49.448;7.904;2023-04-05T13:38:27;98457.78;;;8.01;31.52
46392;BME280;32098;49.448;7.904;2023-04-05T13:40:54;98455.34;;;7.86;30.76
46392;BME280;32098;49.448;7.904;2023-04-05T13:43:21;98453.50;;;7.86;32.08